createdAt,value
2023-05-22T00:01:04.975Z,17.40
2023-05-22T00:03:33.255Z,17.40
2023-05-22T00:06:02.750Z,17.40
2023-05-22T00:08:31.046Z,17.40
2023-05-22T00:10:59.180Z,17.30
2023-05-22T00:13:27.249Z,17.30
2023-05-22T00:15:56.707Z,17.30
2023-05-22T00:18:27.173Z,17.30
2023-05-22T00:20:55.742Z,17.30
2023-05-22T00:23:29.945Z,17.30
2023-05-22T00:25:58.277Z,17.30
2023-05-22T00:28:28.308Z,17.30
2023-05-22T00:31:02.789Z,17.30
2023-05-22T00:33:39.691Z,17.30
2023-05-22T00:36:09.687Z,17.30
2023-05-22T00:38:42.013Z,17.30
2023-05-22T00:41:11.079Z,17.30
2023-05-22T00:43:43.253Z,17.20
2023-05-22T00:46:12.641Z,17.30
2023-05-22T00:48:40.868Z,17.20
2023-05-22T00:51:09.333Z,17.20
2023-05-22T00:53:38.994Z,17.20
2023-05-22T00:56:08.086Z,17.20
2023-05-22T00:58:36.082Z,17.20
2023-05-22T01:01:05.443Z,17.20
2023-05-22T01:03:33.747Z,17.20
2023-05-22T01:06:02.251Z,17.20
2023-05-22T01:08:30.504Z,17.20
2023-05-22T01:11:05.383Z,17.20
2023-05-22T01:13:48.711Z,17.20
2023-05-22T01:16:26.102Z,17.20
2023-05-22T01:19:04.153Z,17.20
2023-05-22T01:21:40.202Z,17.20
2023-05-22T01:24:44.108Z,17.20
2023-05-22T01:27:35.663Z,17.20
2023-05-22T01:30:18.655Z,17.20
2023-05-22T01:32:49.224Z,17.20
2023-05-22T01:35:19.698Z,17.20
2023-05-22T01:37:49.031Z,17.10
2023-05-22T01:40:18.656Z,17.10
2023-05-22T01:42:46.896Z,17.10
2023-05-22T01:45:16.048Z,17.10
2023-05-22T01:47:44.302Z,17.10
2023-05-22T01:50:14.289Z,17.10
2023-05-22T01:52:52.873Z,17.00
2023-05-22T01:55:29.207Z,17.10
2023-05-22T01:58:02.319Z,17.10
2023-05-22T02:00:31.404Z,17.10
2023-05-22T02:03:06.850Z,17.00
2023-05-22T02:05:41.449Z,17.00
2023-05-22T02:08:10.014Z,17.00
2023-05-22T02:10:40.077Z,17.00
2023-05-22T02:13:08.392Z,17.00
2023-05-22T02:15:36.658Z,17.00
2023-05-22T02:18:12.976Z,17.00
2023-05-22T02:20:42.978Z,16.90
2023-05-22T02:23:12.738Z,16.90
2023-05-22T02:25:44.338Z,16.90
2023-05-22T02:28:12.692Z,16.90
2023-05-22T02:30:44.849Z,16.80
2023-05-22T02:33:13.294Z,16.80
2023-05-22T02:35:47.314Z,16.80
2023-05-22T02:38:19.403Z,16.80
2023-05-22T02:40:49.766Z,16.80
2023-05-22T02:43:18.089Z,16.70
2023-05-22T02:45:46.468Z,16.70
2023-05-22T02:48:14.605Z,16.70
2023-05-22T02:50:44.834Z,16.70
2023-05-22T02:53:14.412Z,16.70
2023-05-22T02:55:42.731Z,16.60
2023-05-22T02:58:11.975Z,16.60
2023-05-22T03:00:40.275Z,16.50
2023-05-22T03:03:09.993Z,16.50
2023-05-22T03:05:42.860Z,16.40
2023-05-22T03:08:12.799Z,16.40
2023-05-22T03:10:43.250Z,16.50
2023-05-22T03:13:13.641Z,16.40
2023-05-22T03:15:44.393Z,16.40
2023-05-22T03:18:12.957Z,16.40
2023-05-22T03:20:41.829Z,16.40
2023-05-22T03:23:11.366Z,16.30
2023-05-22T03:25:40.833Z,16.40
2023-05-22T03:28:10.971Z,16.30
2023-05-22T03:30:39.090Z,16.30
2023-05-22T03:33:07.242Z,16.40
2023-05-22T03:35:36.207Z,16.30
2023-05-22T03:38:04.178Z,16.30
2023-05-22T03:40:32.197Z,16.30
2023-05-22T03:43:01.618Z,16.30
2023-05-22T03:45:29.645Z,16.30
2023-05-22T03:47:57.777Z,16.30
2023-05-22T03:50:25.812Z,16.30
2023-05-22T03:52:53.787Z,16.30
2023-05-22T03:55:21.797Z,16.30
2023-05-22T03:57:49.854Z,16.30
2023-05-22T04:00:20.775Z,16.30
2023-05-22T04:02:50.543Z,16.20
2023-05-22T04:05:18.848Z,16.20
2023-05-22T04:07:46.949Z,16.30
2023-05-22T04:10:14.969Z,16.30
2023-05-22T04:12:42.935Z,16.30
2023-05-22T04:15:11.212Z,16.30
2023-05-22T04:17:42.344Z,16.30
2023-05-22T04:20:13.454Z,16.30
2023-05-22T04:22:41.769Z,16.30
2023-05-22T04:25:10.378Z,16.30
2023-05-22T04:27:38.678Z,16.30
2023-05-22T04:30:10.783Z,16.30
2023-05-22T04:32:40.831Z,16.40
2023-05-22T04:35:10.149Z,16.40
2023-05-22T04:37:38.189Z,16.40
2023-05-22T04:40:08.334Z,16.40
2023-05-22T04:42:37.345Z,16.40
2023-05-22T04:45:06.039Z,16.40
2023-05-22T04:47:34.333Z,16.50
2023-05-22T04:50:04.042Z,16.50
2023-05-22T04:52:32.338Z,16.50
2023-05-22T04:55:03.330Z,16.50
2023-05-22T04:57:33.368Z,16.50
2023-05-22T05:00:08.456Z,16.50
2023-05-22T05:02:36.607Z,16.50
2023-05-22T05:05:06.550Z,16.50
2023-05-22T05:07:37.565Z,16.50
2023-05-22T05:10:06.246Z,16.50
2023-05-22T05:12:34.206Z,16.50
2023-05-22T05:15:02.225Z,16.50
2023-05-22T05:17:38.149Z,16.50
2023-05-22T05:20:10.884Z,16.50
2023-05-22T05:22:39.840Z,16.50
2023-05-22T05:25:31.168Z,16.50
2023-05-22T05:27:59.688Z,16.60
2023-05-22T05:30:35.414Z,16.50
2023-05-22T05:33:03.475Z,16.60
2023-05-22T05:35:32.844Z,16.60
2023-05-22T05:38:01.921Z,16.60
2023-05-22T05:40:30.004Z,16.60
2023-05-22T05:42:58.004Z,16.60
2023-05-22T05:45:27.286Z,16.60
2023-05-22T05:47:55.310Z,16.60
2023-05-22T05:50:23.775Z,16.60
2023-05-22T05:52:53.474Z,16.60
2023-05-22T05:55:24.286Z,16.60
2023-05-22T05:57:52.869Z,16.70
2023-05-22T06:00:22.653Z,16.70
2023-05-22T06:02:51.024Z,16.70
2023-05-22T06:05:19.642Z,16.70
2023-05-22T06:07:48.222Z,16.80
2023-05-22T06:10:17.543Z,16.80
2023-05-22T06:12:45.564Z,16.80
2023-05-22T06:15:13.851Z,16.90
2023-05-22T06:17:41.954Z,16.90
2023-05-22T06:20:10.516Z,16.90
2023-05-22T06:22:39.073Z,16.90
2023-05-22T06:25:08.217Z,17.00
2023-05-22T06:27:39.104Z,17.00
2023-05-22T06:30:08.874Z,17.00
2023-05-22T06:32:37.041Z,17.00
2023-05-22T06:35:05.710Z,17.00
2023-05-22T06:37:35.760Z,17.00
2023-05-22T06:40:04.006Z,17.10
2023-05-22T06:42:31.976Z,17.10
2023-05-22T06:45:01.360Z,17.20
2023-05-22T06:47:29.717Z,17.20
2023-05-22T06:49:57.736Z,17.20
2023-05-22T06:52:25.779Z,17.20
2023-05-22T06:54:54.074Z,17.20
2023-05-22T06:57:23.986Z,17.20
2023-05-22T06:59:51.981Z,17.30
2023-05-22T07:02:21.304Z,17.30
2023-05-22T07:04:49.418Z,17.30
2023-05-22T07:07:17.397Z,17.40
2023-05-22T07:09:45.441Z,17.40
2023-05-22T07:12:13.730Z,17.40
2023-05-22T07:14:42.742Z,17.50
2023-05-22T07:17:10.690Z,17.60
2023-05-22T07:19:40.034Z,17.60
2023-05-22T07:22:08.117Z,17.70
2023-05-22T07:24:36.247Z,17.70
2023-05-22T07:27:04.619Z,17.80
2023-05-22T07:29:32.886Z,17.90
2023-05-22T07:32:01.148Z,17.90
2023-05-22T07:34:33.144Z,17.90
2023-05-22T07:37:08.341Z,18.00
2023-05-22T07:39:36.657Z,18.00
2023-05-22T07:42:05.301Z,18.10
2023-05-22T07:44:33.667Z,18.10
2023-05-22T07:47:02.006Z,18.10
2023-05-22T07:49:30.135Z,18.10
2023-05-22T07:51:58.163Z,18.10
2023-05-22T07:54:27.491Z,18.20
2023-05-22T07:56:56.255Z,18.20
2023-05-22T07:59:25.629Z,18.20
2023-05-22T08:01:54.167Z,18.20
2023-05-22T08:04:22.392Z,18.30
2023-05-22T08:06:50.825Z,18.30
2023-05-22T08:09:21.237Z,18.30
2023-05-22T08:11:51.356Z,18.30
2023-05-22T08:14:19.568Z,18.30
2023-05-22T08:16:47.659Z,18.40
2023-05-22T08:19:16.232Z,18.50
2023-05-22T08:21:44.373Z,18.50
2023-05-22T08:24:12.530Z,18.50
2023-05-22T08:26:41.518Z,18.60
2023-05-22T08:29:11.563Z,18.60
2023-05-22T08:31:39.644Z,18.60
2023-05-22T08:34:07.803Z,18.70
2023-05-22T08:36:35.817Z,18.70
2023-05-22T08:39:04.002Z,18.70
2023-05-22T08:41:32.331Z,18.70
2023-05-22T08:44:00.453Z,18.80
2023-05-22T08:46:31.757Z,18.80
2023-05-22T08:49:00.170Z,18.80
2023-05-22T08:51:31.523Z,18.80
2023-05-22T08:54:01.649Z,18.80
2023-05-22T08:56:32.137Z,18.90
2023-05-22T08:59:01.845Z,18.90
2023-05-22T09:01:32.924Z,19.00
2023-05-22T09:04:03.505Z,19.00
2023-05-22T09:06:31.940Z,19.10
2023-05-22T09:09:01.531Z,19.10
2023-05-22T09:11:29.682Z,19.20
2023-05-22T09:14:09.864Z,19.30
2023-05-22T09:16:47.234Z,19.30
2023-05-22T09:19:15.968Z,19.30
2023-05-22T09:21:45.708Z,19.40
2023-05-22T09:24:13.900Z,19.40
2023-05-22T09:26:42.272Z,19.50
2023-05-22T09:29:10.971Z,19.50
2023-05-22T09:31:46.979Z,19.50
2023-05-22T09:34:16.010Z,19.60
2023-05-22T09:36:44.361Z,19.60
2023-05-22T09:39:12.517Z,19.70
2023-05-22T09:41:41.390Z,19.70
2023-05-22T09:44:16.928Z,19.80
2023-05-22T09:46:48.197Z,19.80
2023-05-22T09:49:17.295Z,19.80
2023-05-22T09:51:48.420Z,19.70
2023-05-22T09:54:17.606Z,19.70
2023-05-22T09:56:48.765Z,19.70
2023-05-22T09:59:21.859Z,19.70
2023-05-22T10:01:52.276Z,19.70
2023-05-22T10:04:22.833Z,19.60
2023-05-22T10:06:52.992Z,19.60
2023-05-22T10:09:25.060Z,19.60
2023-05-22T10:11:56.389Z,19.60
2023-05-22T10:14:25.560Z,19.60
2023-05-22T10:16:56.869Z,19.60
2023-05-22T10:19:27.800Z,19.50
2023-05-22T10:21:59.552Z,19.50
2023-05-22T10:24:27.783Z,19.60
2023-05-22T10:26:56.020Z,19.60
2023-05-22T10:29:29.292Z,19.60
2023-05-22T10:32:05.217Z,19.60
2023-05-22T10:34:51.931Z,19.70
2023-05-22T10:37:37.150Z,19.60
2023-05-22T10:40:10.905Z,19.60
2023-05-22T10:42:40.183Z,19.70
2023-05-22T10:45:09.461Z,19.70
2023-05-22T10:47:39.201Z,19.70
2023-05-22T10:50:11.267Z,19.80
2023-05-22T10:52:40.094Z,19.80
2023-05-22T10:55:09.387Z,19.80
2023-05-22T10:57:39.605Z,19.70
2023-05-22T11:00:09.853Z,19.80
2023-05-22T11:02:44.216Z,19.70
2023-05-22T11:05:36.631Z,19.80
2023-05-22T11:08:40.736Z,19.80
2023-05-22T11:11:14.115Z,19.90
2023-05-22T11:13:43.630Z,20.00
2023-05-22T11:16:12.380Z,20.00
2023-05-22T11:18:41.768Z,20.00
2023-05-22T11:21:15.150Z,20.00
2023-05-22T11:23:44.862Z,20.10
2023-05-22T11:26:20.383Z,20.10
2023-05-22T11:28:55.724Z,20.20
2023-05-22T11:31:26.877Z,20.20
2023-05-22T11:33:56.502Z,20.30
2023-05-22T11:36:25.095Z,20.40
2023-05-22T11:38:57.915Z,20.50
2023-05-22T11:41:25.992Z,20.50
2023-05-22T11:43:53.987Z,20.60
2023-05-22T11:46:22.115Z,20.70
2023-05-22T11:48:50.189Z,20.70
2023-05-22T11:51:22.749Z,20.70
2023-05-22T11:53:51.550Z,20.80
2023-05-22T11:56:23.436Z,20.90
2023-05-22T11:58:51.902Z,20.70
2023-05-22T12:01:20.023Z,20.80
2023-05-22T12:03:48.595Z,20.80
2023-05-22T12:06:18.181Z,20.80
2023-05-22T12:08:47.904Z,20.70
2023-05-22T12:11:16.053Z,20.80
2023-05-22T12:13:45.038Z,20.80
2023-05-22T12:16:21.852Z,20.80
2023-05-22T12:18:54.026Z,20.80
2023-05-22T12:21:23.602Z,20.90
2023-05-22T12:23:53.230Z,21.00
2023-05-22T12:26:21.448Z,20.80
2023-05-22T12:28:53.560Z,20.80
2023-05-22T12:31:22.711Z,20.90
2023-05-22T12:33:54.292Z,20.90
2023-05-22T12:36:22.305Z,20.80
2023-05-22T12:38:50.372Z,20.90
2023-05-22T12:41:19.770Z,21.10
2023-05-22T12:43:48.027Z,21.20
2023-05-22T12:46:16.202Z,21.20
2023-05-22T12:48:44.228Z,21.20
2023-05-22T12:51:13.614Z,21.30
2023-05-22T12:53:41.686Z,21.30
2023-05-22T12:56:10.078Z,21.30
2023-05-22T12:58:39.531Z,21.40
2023-05-22T13:01:07.980Z,21.50
2023-05-22T13:03:36.605Z,21.60
2023-05-22T13:06:05.297Z,21.70
2023-05-22T13:08:35.747Z,21.70
2023-05-22T13:11:04.269Z,21.80
2023-05-22T13:13:32.321Z,21.80
2023-05-22T13:16:02.076Z,21.80
2023-05-22T13:18:30.185Z,21.80
2023-05-22T13:21:00.483Z,21.90
2023-05-22T13:23:28.570Z,22.00
2023-05-22T13:25:56.893Z,22.10
2023-05-22T13:28:26.411Z,22.10
2023-05-22T13:30:54.939Z,22.30
2023-05-22T13:33:25.725Z,22.40
2023-05-22T13:35:53.831Z,22.50
2023-05-22T13:38:22.281Z,22.40
2023-05-22T13:40:51.935Z,22.50
2023-05-22T13:43:19.972Z,22.60
2023-05-22T13:45:48.246Z,22.70
2023-05-22T13:48:17.562Z,22.80
2023-05-22T13:50:47.077Z,22.80
2023-05-22T13:53:15.353Z,22.90
2023-05-22T13:55:43.368Z,23.00
2023-05-22T13:58:11.343Z,23.10
2023-05-22T14:00:39.295Z,23.20
2023-05-22T14:03:07.450Z,23.30
2023-05-22T14:05:35.470Z,23.40
2023-05-22T14:08:04.831Z,23.50
2023-05-22T14:10:34.338Z,23.50
2023-05-22T14:13:02.454Z,23.60
2023-05-22T14:15:30.812Z,23.60
2023-05-22T14:17:58.890Z,23.80
2023-05-22T14:20:27.039Z,23.80
2023-05-22T14:22:57.684Z,23.90
2023-05-22T14:25:28.044Z,23.90
2023-05-22T14:27:56.246Z,24.00
2023-05-22T14:30:24.279Z,24.00
2023-05-22T14:32:52.760Z,24.00
2023-05-22T14:35:20.934Z,24.10
2023-05-22T14:37:50.215Z,24.10
2023-05-22T14:40:18.589Z,24.20
2023-05-22T14:42:48.020Z,24.30
2023-05-22T14:45:16.134Z,24.30
2023-05-22T14:47:44.326Z,24.30
2023-05-22T14:50:18.974Z,24.40
2023-05-22T14:52:47.744Z,24.40
2023-05-22T14:55:15.946Z,24.50
2023-05-22T14:57:43.976Z,24.60
2023-05-22T15:00:14.628Z,24.60
2023-05-22T15:02:42.727Z,24.70
2023-05-22T15:05:11.355Z,24.80
2023-05-22T15:07:44.512Z,24.90
2023-05-22T15:10:14.080Z,24.90
2023-05-22T15:12:42.111Z,24.90
2023-05-22T15:15:10.924Z,24.90
2023-05-22T15:17:42.548Z,24.80
2023-05-22T15:20:12.104Z,24.90
2023-05-22T15:22:40.330Z,25.00
2023-05-22T15:25:11.542Z,25.10
2023-05-22T15:27:40.788Z,25.10
2023-05-22T15:30:10.670Z,25.10
2023-05-22T15:32:40.567Z,25.20
2023-05-22T15:35:09.430Z,25.20
2023-05-22T15:37:37.490Z,25.20
2023-05-22T15:40:06.987Z,25.20
2023-05-22T15:42:35.306Z,25.30
2023-05-22T15:45:03.619Z,25.40
2023-05-22T15:47:31.689Z,25.50
2023-05-22T15:50:01.395Z,25.60
2023-05-22T15:52:29.369Z,25.80
2023-05-22T15:54:58.761Z,25.80
2023-05-22T15:57:28.262Z,25.80
2023-05-22T15:59:56.290Z,26.00
2023-05-22T16:02:24.329Z,26.10
2023-05-22T16:04:52.697Z,26.20
2023-05-22T16:07:22.096Z,26.20
2023-05-22T16:09:50.757Z,26.40
2023-05-22T16:12:19.225Z,26.50
2023-05-22T16:14:47.524Z,26.60
2023-05-22T16:17:15.568Z,26.60
2023-05-22T16:19:43.573Z,26.60
2023-05-22T16:22:13.122Z,26.60
2023-05-22T16:24:42.491Z,26.60
2023-05-22T16:27:10.496Z,26.60
2023-05-22T16:29:38.793Z,26.60
2023-05-22T16:32:07.048Z,26.40
2023-05-22T16:34:36.443Z,26.50
2023-05-22T16:37:04.553Z,26.40
2023-05-22T16:39:32.522Z,26.50
2023-05-22T16:42:02.095Z,26.60
2023-05-22T16:44:30.109Z,26.60
2023-05-22T16:46:58.293Z,26.60
2023-05-22T16:49:26.561Z,26.60
2023-05-22T16:51:54.563Z,26.60
2023-05-22T16:54:22.817Z,26.60
2023-05-22T16:56:50.892Z,26.60
2023-05-22T16:59:20.600Z,26.60
2023-05-22T17:01:48.763Z,26.50
2023-05-22T17:04:19.109Z,26.40
2023-05-22T17:06:47.366Z,26.30
2023-05-22T17:09:15.510Z,26.30
2023-05-22T17:11:44.838Z,26.20
2023-05-22T17:14:13.158Z,25.90
2023-05-22T17:16:42.602Z,25.90
2023-05-22T17:19:30.837Z,25.70
2023-05-22T17:21:59.118Z,25.50
2023-05-22T17:24:29.022Z,25.40
2023-05-22T17:26:57.180Z,25.20
2023-05-22T17:29:27.281Z,25.00
2023-05-22T17:31:57.777Z,24.80
2023-05-22T17:34:25.915Z,24.60
2023-05-22T17:36:54.040Z,24.40
2023-05-22T17:39:22.361Z,24.20
2023-05-22T17:41:50.596Z,24.00
2023-05-22T17:44:19.119Z,23.90
2023-05-22T17:46:47.311Z,23.80
2023-05-22T17:49:17.167Z,23.60
2023-05-22T17:51:45.248Z,23.50
2023-05-22T17:54:16.963Z,23.40
2023-05-22T17:56:45.521Z,23.30
2023-05-22T17:59:13.798Z,23.20
2023-05-22T18:01:41.893Z,23.10
2023-05-22T18:04:11.314Z,23.00
2023-05-22T18:06:40.948Z,23.00
2023-05-22T18:09:09.304Z,22.90
2023-05-22T18:11:37.582Z,22.90
2023-05-22T18:14:05.733Z,22.70
2023-05-22T18:16:33.946Z,22.70
2023-05-22T18:19:02.301Z,22.60
2023-05-22T18:21:30.762Z,22.50
2023-05-22T18:24:01.034Z,22.30
2023-05-22T18:26:29.298Z,22.30
2023-05-22T18:28:57.501Z,22.20
2023-05-22T18:31:25.596Z,22.10
2023-05-22T18:33:54.251Z,22.00
2023-05-22T18:36:22.650Z,21.90
2023-05-22T18:38:53.312Z,21.80
2023-05-22T18:41:23.108Z,21.80
2023-05-22T18:43:52.711Z,21.70
2023-05-22T18:46:20.936Z,21.50
2023-05-22T18:48:49.930Z,21.40
2023-05-22T18:51:19.835Z,21.40
2023-05-22T18:53:49.771Z,21.30
2023-05-22T18:56:17.912Z,21.30
2023-05-22T18:58:48.616Z,21.20
2023-05-22T19:01:17.730Z,21.10
2023-05-22T19:04:06.555Z,21.00
2023-05-22T19:06:35.631Z,21.00
2023-05-22T19:09:06.813Z,20.80
2023-05-22T19:11:35.217Z,20.80
2023-05-22T19:14:25.420Z,20.70
2023-05-22T19:16:54.427Z,20.70
2023-05-22T19:19:22.923Z,20.60
2023-05-22T19:21:51.355Z,20.60
2023-05-22T19:24:19.551Z,20.60
2023-05-22T19:26:47.962Z,20.50
2023-05-22T19:29:19.061Z,20.40
2023-05-22T19:31:47.551Z,20.20
2023-05-22T19:34:17.216Z,20.10
2023-05-22T19:36:47.675Z,20.10
2023-05-22T19:39:16.301Z,20.00
2023-05-22T19:41:44.723Z,19.90
2023-05-22T19:44:32.785Z,19.70
2023-05-22T19:47:03.601Z,19.70
2023-05-22T19:49:37.143Z,19.60
2023-05-22T19:52:06.771Z,19.50
2023-05-22T19:54:35.645Z,19.50
2023-05-22T19:57:06.637Z,19.50
2023-05-22T19:59:56.191Z,19.40
2023-05-22T20:02:27.365Z,19.20
2023-05-22T20:04:55.668Z,19.10
2023-05-22T20:07:44.889Z,19.10
2023-05-22T20:10:13.255Z,19.10
2023-05-22T20:12:41.506Z,19.10
2023-05-22T20:15:15.307Z,19.00
2023-05-22T20:17:47.811Z,19.00
2023-05-22T20:20:16.123Z,18.90
2023-05-22T20:22:46.701Z,18.80
2023-05-22T20:25:14.730Z,18.80
2023-05-22T20:27:42.718Z,18.80
2023-05-22T20:30:12.871Z,18.70
2023-05-22T20:32:42.539Z,18.70
2023-05-22T20:35:13.318Z,18.60
2023-05-22T20:37:42.152Z,18.60
2023-05-22T20:40:10.990Z,18.50
2023-05-22T20:42:39.336Z,18.50
2023-05-22T20:45:08.455Z,18.40
2023-05-22T20:47:36.541Z,18.50
2023-05-22T20:50:05.236Z,18.40
2023-05-22T20:52:36.916Z,18.40
2023-05-22T20:55:05.813Z,18.40
2023-05-22T20:57:33.855Z,18.40
2023-05-22T21:00:02.430Z,18.30
2023-05-22T21:02:31.005Z,18.30
2023-05-22T21:04:59.407Z,18.30
2023-05-22T21:07:27.414Z,18.20
2023-05-22T21:09:57.064Z,18.20
2023-05-22T21:12:25.260Z,18.20
2023-05-22T21:14:53.382Z,18.20
2023-05-22T21:17:22.815Z,18.20
2023-05-22T21:19:50.947Z,18.20
2023-05-22T21:22:19.037Z,18.20
2023-05-22T21:24:48.890Z,18.20
2023-05-22T21:27:18.535Z,18.20
2023-05-22T21:29:46.861Z,18.20
2023-05-22T21:32:15.099Z,18.20
2023-05-22T21:34:43.467Z,18.20
2023-05-22T21:37:11.527Z,18.20
2023-05-22T21:39:39.516Z,18.30
2023-05-22T21:42:10.422Z,18.20
2023-05-22T21:45:00.379Z,18.20
2023-05-22T21:47:28.418Z,18.20
2023-05-22T21:49:56.484Z,18.20
2023-05-22T21:52:28.677Z,18.20
2023-05-22T21:54:58.227Z,18.10
2023-05-22T21:57:26.230Z,18.00
2023-05-22T21:59:58.040Z,18.10
2023-05-22T22:02:26.141Z,18.10
2023-05-22T22:04:54.197Z,18.00
2023-05-22T22:07:22.279Z,18.00
2023-05-22T22:09:51.686Z,18.00
2023-05-22T22:12:19.675Z,18.00
2023-05-22T22:14:47.823Z,18.10
2023-05-22T22:17:17.860Z,18.00
2023-05-22T22:19:46.977Z,17.90
2023-05-22T22:22:14.991Z,17.90
2023-05-22T22:24:42.975Z,17.90
2023-05-22T22:27:11.124Z,17.90
2023-05-22T22:29:39.393Z,17.80
2023-05-22T22:32:07.864Z,17.70
2023-05-22T22:34:40.633Z,17.80
2023-05-22T22:37:08.810Z,17.70
2023-05-22T22:39:36.776Z,17.70
2023-05-22T22:42:05.197Z,17.60
2023-05-22T22:44:33.692Z,17.60
2023-05-22T22:47:02.834Z,17.60
2023-05-22T22:49:32.718Z,17.50
2023-05-22T22:52:02.175Z,17.50
2023-05-22T22:54:30.268Z,17.40
2023-05-22T22:56:58.440Z,17.40
2023-05-22T22:59:26.553Z,17.40
2023-05-22T23:01:56.852Z,17.30
2023-05-22T23:04:28.282Z,17.30
2023-05-22T23:06:57.621Z,17.30
2023-05-22T23:09:27.131Z,17.20
2023-05-22T23:11:55.133Z,17.20
2023-05-22T23:14:24.786Z,17.10
2023-05-22T23:16:52.884Z,17.10
2023-05-22T23:19:20.936Z,17.00
2023-05-22T23:21:49.061Z,17.00
2023-05-22T23:24:19.473Z,16.90
2023-05-22T23:26:48.812Z,16.80
2023-05-22T23:29:16.784Z,16.80
2023-05-22T23:31:44.804Z,16.70
2023-05-22T23:34:12.789Z,16.80
2023-05-22T23:36:41.474Z,16.70
2023-05-22T23:39:09.796Z,16.70
2023-05-22T23:41:37.947Z,16.60
2023-05-22T23:44:07.811Z,16.60
2023-05-22T23:46:39.763Z,16.60
2023-05-22T23:49:08.288Z,16.60
2023-05-22T23:51:36.589Z,16.60
2023-05-22T23:54:04.772Z,16.60
2023-05-22T23:56:33.236Z,16.50
2023-05-22T23:59:01.342Z,16.50
